sensor_id;sensor_type;location;lat;lon;timestamp;temperature;humidity
28959;DHT22;16066;0.000;0.000;2023-05-10T00:01:32;18.70;59.00
28959;DHT22;16066;0.000;0.000;2023-05-10T00:03:57;18.70;59.20
28959;DHT22;16066;0.000;0.000;2023-05-10T00:06:23;18.70;59.00
28959;DHT22;16066;0.000;0.000;2023-05-10T00:08:49;18.70;59.00
28959;DHT22;16066;0.000;0.000;2023-05-10T00:11:14;18.70;58.90
28959;DHT22;16066;0.000;0.000;2023-05-10T00:13:40;18.70;58.90
28959;DHT22;16066;0.000;0.000;2023-05-10T00:16:05;18.70;58.90
28959;DHT22;16066;0.000;0.000;2023-05-10T00:18:31;18.70;58.80
28959;DHT22;16066;0.000;0.000;2023-05-10T00:20:57;18.70;58.80
28959;DHT22;16066;0.000;0.000;2023-05-10T00:23:22;18.70;58.70
28959;DHT22;16066;0.000;0.000;2023-05-10T00:25:48;18.70;58.80
28959;DHT22;16066;0.000;0.000;2023-05-10T00:28:13;18.70;58.90
28959;DHT22;16066;0.000;0.000;2023-05-10T00:30:39;18.70;58.90
28959;DHT22;16066;0.000;0.000;2023-05-10T00:33:05;18.70;58.80
28959;DHT22;16066;0.000;0.000;2023-05-10T00:35:31;18.70;58.80
28959;DHT22;16066;0.000;0.000;2023-05-10T00:37:57;18.70;58.70
28959;DHT22;16066;0.000;0.000;2023-05-10T00:40:23;18.70;58.80
28959;DHT22;16066;0.000;0.000;2023-05-10T00:42:48;18.80;58.70
28959;DHT22;16066;0.000;0.000;2023-05-10T00:45:14;18.70;58.80
28959;DHT22;16066;0.000;0.000;2023-05-10T00:47:39;18.70;58.80
28959;DHT22;16066;0.000;0.000;2023-05-10T00:50:06;18.70;58.80
28959;DHT22;16066;0.000;0.000;2023-05-10T00:52:31;18.70;58.80
28959;DHT22;16066;0.000;0.000;2023-05-10T00:54:57;18.70;58.90
28959;DHT22;16066;0.000;0.000;2023-05-10T00:57:24;18.70;58.80
28959;DHT22;16066;0.000;0.000;2023-05-10T00:59:49;18.70;59.00
28959;DHT22;16066;0.000;0.000;2023-05-10T01:02:15;18.70;58.90
28959;DHT22;16066;0.000;0.000;2023-05-10T01:04:41;18.70;59.00
28959;DHT22;16066;0.000;0.000;2023-05-10T01:07:07;18.70;58.90
28959;DHT22;16066;0.000;0.000;2023-05-10T01:09:33;18.70;58.80
28959;DHT22;16066;0.000;0.000;2023-05-10T01:11:59;18.70;58.70
28959;DHT22;16066;0.000;0.000;2023-05-10T01:14:25;18.70;58.70
28959;DHT22;16066;0.000;0.000;2023-05-10T01:16:52;18.70;58.80
28959;DHT22;16066;0.000;0.000;2023-05-10T01:19:29;18.70;58.80
28959;DHT22;16066;0.000;0.000;2023-05-10T01:22:30;18.70;58.80
28959;DHT22;16066;0.000;0.000;2023-05-10T01:33:55;18.60;58.80
28959;DHT22;16066;0.000;0.000;2023-05-10T01:36:31;18.60;58.90
28959;DHT22;16066;0.000;0.000;2023-05-10T01:39:15;18.60;59.00
28959;DHT22;16066;0.000;0.000;2023-05-10T01:41:55;18.60;59.10
28959;DHT22;16066;0.000;0.000;2023-05-10T01:44:24;18.60;59.00
28959;DHT22;16066;0.000;0.000;2023-05-10T01:47:07;18.60;59.60
28959;DHT22;16066;0.000;0.000;2023-05-10T01:49:39;18.60;59.00
28959;DHT22;16066;0.000;0.000;2023-05-10T01:52:15;18.60;59.10
28959;DHT22;16066;0.000;0.000;2023-05-10T01:54:45;18.50;59.10
28959;DHT22;16066;0.000;0.000;2023-05-10T01:57:15;18.50;59.00
28959;DHT22;16066;0.000;0.000;2023-05-10T01:59:43;18.50;59.00
28959;DHT22;16066;0.000;0.000;2023-05-10T02:02:12;18.50;59.10
28959;DHT22;16066;0.000;0.000;2023-05-10T02:04:40;18.50;59.20
28959;DHT22;16066;0.000;0.000;2023-05-10T02:07:07;18.50;59.20
28959;DHT22;16066;0.000;0.000;2023-05-10T02:09:34;18.50;59.10
28959;DHT22;16066;0.000;0.000;2023-05-10T02:12:01;18.50;59.20
28959;DHT22;16066;0.000;0.000;2023-05-10T02:14:30;18.50;59.10
28959;DHT22;16066;0.000;0.000;2023-05-10T02:16:58;18.50;58.90
28959;DHT22;16066;0.000;0.000;2023-05-10T02:19:25;18.50;59.00
28959;DHT22;16066;0.000;0.000;2023-05-10T02:21:51;18.50;58.90
28959;DHT22;16066;0.000;0.000;2023-05-10T02:24:18;18.50;58.70
28959;DHT22;16066;0.000;0.000;2023-05-10T02:26:44;18.60;58.90
28959;DHT22;16066;0.000;0.000;2023-05-10T02:29:11;18.50;58.70
28959;DHT22;16066;0.000;0.000;2023-05-10T02:31:38;18.50;58.70
28959;DHT22;16066;0.000;0.000;2023-05-10T02:34:04;18.50;58.80
28959;DHT22;16066;0.000;0.000;2023-05-10T02:36:31;18.50;58.90
28959;DHT22;16066;0.000;0.000;2023-05-10T02:38:58;18.50;58.90
28959;DHT22;16066;0.000;0.000;2023-05-10T02:41:25;18.50;58.70
28959;DHT22;16066;0.000;0.000;2023-05-10T02:43:52;18.40;58.70
28959;DHT22;16066;0.000;0.000;2023-05-10T02:46:20;18.40;58.70
28959;DHT22;16066;0.000;0.000;2023-05-10T02:48:45;18.40;58.60
28959;DHT22;16066;0.000;0.000;2023-05-10T02:51:12;18.40;58.50
28959;DHT22;16066;0.000;0.000;2023-05-10T02:53:41;18.30;58.70
28959;DHT22;16066;0.000;0.000;2023-05-10T02:56:23;18.30;58.60
28959;DHT22;16066;0.000;0.000;2023-05-10T02:58:50;18.30;58.40
28959;DHT22;16066;0.000;0.000;2023-05-10T03:01:15;18.30;58.30
28959;DHT22;16066;0.000;0.000;2023-05-10T03:03:41;18.30;58.30
28959;DHT22;16066;0.000;0.000;2023-05-10T03:06:07;18.30;58.30
28959;DHT22;16066;0.000;0.000;2023-05-10T03:08:32;18.30;58.40
28959;DHT22;16066;0.000;0.000;2023-05-10T03:16:52;18.30;58.20
28959;DHT22;16066;0.000;0.000;2023-05-10T03:19:26;18.30;58.10
28959;DHT22;16066;0.000;0.000;2023-05-10T03:21:53;18.40;58.20
28959;DHT22;16066;0.000;0.000;2023-05-10T03:24:23;18.40;58.00
28959;DHT22;16066;0.000;0.000;2023-05-10T03:26:56;18.40;58.00
28959;DHT22;16066;0.000;0.000;2023-05-10T03:29:22;18.30;58.00
28959;DHT22;16066;0.000;0.000;2023-05-10T03:31:50;18.30;57.90
28959;DHT22;16066;0.000;0.000;2023-05-10T03:34:16;18.30;58.10
28959;DHT22;16066;0.000;0.000;2023-05-10T03:36:42;18.30;58.10
28959;DHT22;16066;0.000;0.000;2023-05-10T03:39:08;18.30;58.80
28959;DHT22;16066;0.000;0.000;2023-05-10T03:41:34;18.30;58.30
28959;DHT22;16066;0.000;0.000;2023-05-10T03:43:59;18.20;58.20
28959;DHT22;16066;0.000;0.000;2023-05-10T03:46:25;18.20;58.40
28959;DHT22;16066;0.000;0.000;2023-05-10T03:48:50;18.20;58.30
28959;DHT22;16066;0.000;0.000;2023-05-10T03:51:16;18.30;58.50
28959;DHT22;16066;0.000;0.000;2023-05-10T03:53:41;18.30;58.40
28959;DHT22;16066;0.000;0.000;2023-05-10T03:56:07;18.40;58.30
28959;DHT22;16066;0.000;0.000;2023-05-10T03:58:32;18.40;58.10
28959;DHT22;16066;0.000;0.000;2023-05-10T04:00:58;18.40;58.10
28959;DHT22;16066;0.000;0.000;2023-05-10T04:03:23;18.40;58.20
28959;DHT22;16066;0.000;0.000;2023-05-10T04:06:01;18.40;58.40
28959;DHT22;16066;0.000;0.000;2023-05-10T04:08:27;18.30;58.30
28959;DHT22;16066;0.000;0.000;2023-05-10T04:10:52;18.30;58.20
28959;DHT22;16066;0.000;0.000;2023-05-10T04:13:17;18.40;58.10
28959;DHT22;16066;0.000;0.000;2023-05-10T04:15:44;18.40;58.20
28959;DHT22;16066;0.000;0.000;2023-05-10T04:18:10;18.40;58.20
28959;DHT22;16066;0.000;0.000;2023-05-10T04:20:35;18.40;58.10
28959;DHT22;16066;0.000;0.000;2023-05-10T04:23:01;18.40;58.20
28959;DHT22;16066;0.000;0.000;2023-05-10T04:25:26;18.40;58.30
28959;DHT22;16066;0.000;0.000;2023-05-10T04:27:52;18.30;58.30
28959;DHT22;16066;0.000;0.000;2023-05-10T04:30:17;18.30;58.40
28959;DHT22;16066;0.000;0.000;2023-05-10T04:32:43;18.30;58.40
28959;DHT22;16066;0.000;0.000;2023-05-10T04:35:09;18.30;58.40
28959;DHT22;16066;0.000;0.000;2023-05-10T04:37:35;18.30;58.40
28959;DHT22;16066;0.000;0.000;2023-05-10T04:40:02;18.30;58.50
28959;DHT22;16066;0.000;0.000;2023-05-10T04:42:28;18.30;58.70
28959;DHT22;16066;0.000;0.000;2023-05-10T04:44:54;18.30;58.70
28959;DHT22;16066;0.000;0.000;2023-05-10T04:47:19;18.30;58.80
28959;DHT22;16066;0.000;0.000;2023-05-10T04:49:45;18.30;58.70
28959;DHT22;16066;0.000;0.000;2023-05-10T04:52:10;18.30;58.70
28959;DHT22;16066;0.000;0.000;2023-05-10T04:54:36;18.40;58.70
28959;DHT22;16066;0.000;0.000;2023-05-10T04:57:02;18.40;58.70
28959;DHT22;16066;0.000;0.000;2023-05-10T04:59:27;18.40;58.50
28959;DHT22;16066;0.000;0.000;2023-05-10T05:01:53;18.40;58.60
28959;DHT22;16066;0.000;0.000;2023-05-10T05:04:18;18.40;58.80
28959;DHT22;16066;0.000;0.000;2023-05-10T05:06:44;18.40;58.80
28959;DHT22;16066;0.000;0.000;2023-05-10T05:09:09;18.40;58.60
28959;DHT22;16066;0.000;0.000;2023-05-10T05:11:35;18.40;58.60
28959;DHT22;16066;0.000;0.000;2023-05-10T05:14:01;18.40;58.60
28959;DHT22;16066;0.000;0.000;2023-05-10T05:16:26;18.40;58.70
28959;DHT22;16066;0.000;0.000;2023-05-10T05:18:52;18.40;59.30
28959;DHT22;16066;0.000;0.000;2023-05-10T05:21:18;18.40;58.70
28959;DHT22;16066;0.000;0.000;2023-05-10T05:23:44;18.50;58.70
28959;DHT22;16066;0.000;0.000;2023-05-10T05:26:10;18.40;58.80
28959;DHT22;16066;0.000;0.000;2023-05-10T05:28:36;18.40;58.80
28959;DHT22;16066;0.000;0.000;2023-05-10T05:31:06;18.40;59.00
28959;DHT22;16066;0.000;0.000;2023-05-10T05:33:35;18.40;58.90
28959;DHT22;16066;0.000;0.000;2023-05-10T05:36:02;18.40;59.10
28959;DHT22;16066;0.000;0.000;2023-05-10T05:38:28;18.40;58.90
28959;DHT22;16066;0.000;0.000;2023-05-10T05:40:54;18.40;58.80
28959;DHT22;16066;0.000;0.000;2023-05-10T05:43:19;18.40;58.70
28959;DHT22;16066;0.000;0.000;2023-05-10T05:45:45;18.40;58.60
28959;DHT22;16066;0.000;0.000;2023-05-10T05:48:10;18.40;59.20
28959;DHT22;16066;0.000;0.000;2023-05-10T05:50:36;18.40;58.60
28959;DHT22;16066;0.000;0.000;2023-05-10T05:53:02;18.50;58.70
28959;DHT22;16066;0.000;0.000;2023-05-10T05:55:27;18.40;58.70
28959;DHT22;16066;0.000;0.000;2023-05-10T05:57:53;18.50;58.70
28959;DHT22;16066;0.000;0.000;2023-05-10T06:00:19;18.50;58.60
28959;DHT22;16066;0.000;0.000;2023-05-10T06:02:44;18.50;58.60
28959;DHT22;16066;0.000;0.000;2023-05-10T06:05:10;18.50;58.50
28959;DHT22;16066;0.000;0.000;2023-05-10T06:07:35;18.50;58.60
28959;DHT22;16066;0.000;0.000;2023-05-10T06:10:01;18.50;58.50
28959;DHT22;16066;0.000;0.000;2023-05-10T06:12:28;18.50;58.60
28959;DHT22;16066;0.000;0.000;2023-05-10T06:14:53;18.50;58.50
28959;DHT22;16066;0.000;0.000;2023-05-10T06:17:19;18.50;58.70
28959;DHT22;16066;0.000;0.000;2023-05-10T06:19:44;18.40;58.90
28959;DHT22;16066;0.000;0.000;2023-05-10T06:22:10;18.50;58.90
28959;DHT22;16066;0.000;0.000;2023-05-10T06:24:35;18.40;58.90
28959;DHT22;16066;0.000;0.000;2023-05-10T06:27:01;18.40;59.60
28959;DHT22;16066;0.000;0.000;2023-05-10T06:29:27;18.40;59.00
28959;DHT22;16066;0.000;0.000;2023-05-10T06:31:52;18.40;58.90
28959;DHT22;16066;0.000;0.000;2023-05-10T06:34:19;18.40;59.10
28959;DHT22;16066;0.000;0.000;2023-05-10T06:36:45;18.40;59.10
28959;DHT22;16066;0.000;0.000;2023-05-10T06:39:10;18.40;58.90
28959;DHT22;16066;0.000;0.000;2023-05-10T06:41:37;18.40;58.90
28959;DHT22;16066;0.000;0.000;2023-05-10T06:44:03;18.40;59.10
28959;DHT22;16066;0.000;0.000;2023-05-10T06:46:29;18.40;59.10
28959;DHT22;16066;0.000;0.000;2023-05-10T06:48:54;18.30;59.10
28959;DHT22;16066;0.000;0.000;2023-05-10T06:51:20;18.30;59.20
28959;DHT22;16066;0.000;0.000;2023-05-10T06:53:46;18.30;59.30
28959;DHT22;16066;0.000;0.000;2023-05-10T06:56:12;18.20;59.30
28959;DHT22;16066;0.000;0.000;2023-05-10T06:58:38;18.20;59.40
28959;DHT22;16066;0.000;0.000;2023-05-10T07:01:04;18.20;59.30
28959;DHT22;16066;0.000;0.000;2023-05-10T07:03:31;18.20;59.50
28959;DHT22;16066;0.000;0.000;2023-05-10T07:06:01;18.20;59.60
28959;DHT22;16066;0.000;0.000;2023-05-10T07:08:28;18.20;59.40
28959;DHT22;16066;0.000;0.000;2023-05-10T07:11:03;18.20;59.90
28959;DHT22;16066;0.000;0.000;2023-05-10T07:13:29;18.20;59.50
28959;DHT22;16066;0.000;0.000;2023-05-10T07:15:55;18.20;59.50
28959;DHT22;16066;0.000;0.000;2023-05-10T07:18:21;18.20;59.40
28959;DHT22;16066;0.000;0.000;2023-05-10T07:20:46;18.20;59.40
28959;DHT22;16066;0.000;0.000;2023-05-10T07:23:12;18.20;59.50
28959;DHT22;16066;0.000;0.000;2023-05-10T07:25:37;18.20;59.50
28959;DHT22;16066;0.000;0.000;2023-05-10T07:28:03;18.10;59.40
28959;DHT22;16066;0.000;0.000;2023-05-10T07:30:29;18.10;59.40
28959;DHT22;16066;0.000;0.000;2023-05-10T07:32:54;18.20;59.40
28959;DHT22;16066;0.000;0.000;2023-05-10T07:35:20;18.10;59.40
28959;DHT22;16066;0.000;0.000;2023-05-10T07:37:46;18.10;59.40
28959;DHT22;16066;0.000;0.000;2023-05-10T07:40:11;18.20;59.50
28959;DHT22;16066;0.000;0.000;2023-05-10T07:42:37;18.10;59.30
28959;DHT22;16066;0.000;0.000;2023-05-10T07:45:03;18.20;59.50
28959;DHT22;16066;0.000;0.000;2023-05-10T07:47:29;18.10;59.40
28959;DHT22;16066;0.000;0.000;2023-05-10T07:49:54;18.10;59.50
28959;DHT22;16066;0.000;0.000;2023-05-10T07:52:20;18.10;59.60
28959;DHT22;16066;0.000;0.000;2023-05-10T07:54:46;18.10;59.70
28959;DHT22;16066;0.000;0.000;2023-05-10T07:57:11;18.10;59.60
28959;DHT22;16066;0.000;0.000;2023-05-10T07:59:39;18.00;59.60
28959;DHT22;16066;0.000;0.000;2023-05-10T08:02:05;18.10;59.70
28959;DHT22;16066;0.000;0.000;2023-05-10T08:04:31;18.10;59.90
28959;DHT22;16066;0.000;0.000;2023-05-10T08:06:56;18.10;60.10
28959;DHT22;16066;0.000;0.000;2023-05-10T08:09:22;18.20;60.10
28959;DHT22;16066;0.000;0.000;2023-05-10T08:11:49;18.20;60.00
28959;DHT22;16066;0.000;0.000;2023-05-10T08:14:15;18.30;59.70
28959;DHT22;16066;0.000;0.000;2023-05-10T08:16:40;18.30;59.60
28959;DHT22;16066;0.000;0.000;2023-05-10T08:19:06;18.40;59.60
28959;DHT22;16066;0.000;0.000;2023-05-10T08:21:31;18.40;59.30
28959;DHT22;16066;0.000;0.000;2023-05-10T08:23:57;18.40;59.40
28959;DHT22;16066;0.000;0.000;2023-05-10T08:26:23;18.50;59.30
28959;DHT22;16066;0.000;0.000;2023-05-10T08:28:48;18.50;59.10
28959;DHT22;16066;0.000;0.000;2023-05-10T08:31:14;18.50;58.80
28959;DHT22;16066;0.000;0.000;2023-05-10T08:33:40;18.50;59.00
28959;DHT22;16066;0.000;0.000;2023-05-10T08:36:05;18.50;59.00
28959;DHT22;16066;0.000;0.000;2023-05-10T08:38:31;18.50;58.80
28959;DHT22;16066;0.000;0.000;2023-05-10T08:40:56;18.50;58.90
28959;DHT22;16066;0.000;0.000;2023-05-10T08:43:26;18.50;59.00
28959;DHT22;16066;0.000;0.000;2023-05-10T08:45:54;18.50;59.00
28959;DHT22;16066;0.000;0.000;2023-05-10T08:48:23;18.60;59.10
28959;DHT22;16066;0.000;0.000;2023-05-10T08:50:53;18.60;59.20
28959;DHT22;16066;0.000;0.000;2023-05-10T08:53:20;18.70;59.70
28959;DHT22;16066;0.000;0.000;2023-05-10T08:55:46;18.80;58.70
28959;DHT22;16066;0.000;0.000;2023-05-10T08:58:12;18.90;58.60
28959;DHT22;16066;0.000;0.000;2023-05-10T09:00:37;18.90;58.90
28959;DHT22;16066;0.000;0.000;2023-05-10T09:03:04;19.00;58.50
28959;DHT22;16066;0.000;0.000;2023-05-10T09:05:30;19.00;58.50
28959;DHT22;16066;0.000;0.000;2023-05-10T09:07:56;19.10;58.30
28959;DHT22;16066;0.000;0.000;2023-05-10T09:10:21;19.00;58.30
28959;DHT22;16066;0.000;0.000;2023-05-10T09:12:48;19.00;58.30
28959;DHT22;16066;0.000;0.000;2023-05-10T09:15:15;19.00;58.40
28959;DHT22;16066;0.000;0.000;2023-05-10T09:17:42;19.00;58.60
28959;DHT22;16066;0.000;0.000;2023-05-10T09:20:09;19.00;58.70
28959;DHT22;16066;0.000;0.000;2023-05-10T09:22:35;18.90;58.70
28959;DHT22;16066;0.000;0.000;2023-05-10T09:25:11;19.00;58.60
28959;DHT22;16066;0.000;0.000;2023-05-10T09:27:41;19.00;59.30
28959;DHT22;16066;0.000;0.000;2023-05-10T09:30:07;19.00;58.50
28959;DHT22;16066;0.000;0.000;2023-05-10T09:32:47;19.00;58.80
28959;DHT22;16066;0.000;0.000;2023-05-10T09:35:14;19.00;58.40
28959;DHT22;16066;0.000;0.000;2023-05-10T09:37:45;19.00;58.50
28959;DHT22;16066;0.000;0.000;2023-05-10T09:40:16;19.10;58.20
28959;DHT22;16066;0.000;0.000;2023-05-10T09:42:49;19.00;58.00
28959;DHT22;16066;0.000;0.000;2023-05-10T09:45:15;19.00;58.20
28959;DHT22;16066;0.000;0.000;2023-05-10T09:47:41;19.00;58.10
28959;DHT22;16066;0.000;0.000;2023-05-10T09:50:07;19.00;58.10
28959;DHT22;16066;0.000;0.000;2023-05-10T09:52:51;19.10;58.30
28959;DHT22;16066;0.000;0.000;2023-05-10T09:55:24;19.10;58.00
28959;DHT22;16066;0.000;0.000;2023-05-10T09:57:59;19.00;57.70
28959;DHT22;16066;0.000;0.000;2023-05-10T10:00:27;18.90;58.00
28959;DHT22;16066;0.000;0.000;2023-05-10T10:02:59;19.00;58.10
28959;DHT22;16066;0.000;0.000;2023-05-10T10:05:31;19.00;58.00
28959;DHT22;16066;0.000;0.000;2023-05-10T10:07:58;19.00;57.90
28959;DHT22;16066;0.000;0.000;2023-05-10T10:10:25;19.00;57.50
28959;DHT22;16066;0.000;0.000;2023-05-10T10:12:51;19.00;57.50
28959;DHT22;16066;0.000;0.000;2023-05-10T10:15:17;18.90;57.20
28959;DHT22;16066;0.000;0.000;2023-05-10T10:17:43;18.90;57.20
28959;DHT22;16066;0.000;0.000;2023-05-10T10:20:09;18.90;57.30
28959;DHT22;16066;0.000;0.000;2023-05-10T10:22:36;18.90;57.40
28959;DHT22;16066;0.000;0.000;2023-05-10T10:25:03;19.00;57.30
28959;DHT22;16066;0.000;0.000;2023-05-10T10:33:29;19.00;56.80
28959;DHT22;16066;0.000;0.000;2023-05-10T10:36:00;19.00;56.80
28959;DHT22;16066;0.000;0.000;2023-05-10T10:38:35;19.00;56.60
28959;DHT22;16066;0.000;0.000;2023-05-10T10:41:10;19.00;56.60
28959;DHT22;16066;0.000;0.000;2023-05-10T10:43:36;18.90;56.40
28959;DHT22;16066;0.000;0.000;2023-05-10T10:46:14;18.90;56.60
28959;DHT22;16066;0.000;0.000;2023-05-10T10:48:47;18.90;56.70
28959;DHT22;16066;0.000;0.000;2023-05-10T10:51:14;18.90;57.10
28959;DHT22;16066;0.000;0.000;2023-05-10T10:53:40;19.00;56.60
28959;DHT22;16066;0.000;0.000;2023-05-10T10:56:13;19.00;56.40
28959;DHT22;16066;0.000;0.000;2023-05-10T10:58:40;19.10;56.50
28959;DHT22;16066;0.000;0.000;2023-05-10T11:01:17;19.10;56.30
28959;DHT22;16066;0.000;0.000;2023-05-10T11:06:40;19.20;56.20
28959;DHT22;16066;0.000;0.000;2023-05-10T11:09:09;19.20;56.00
28959;DHT22;16066;0.000;0.000;2023-05-10T11:11:35;19.10;55.90
28959;DHT22;16066;0.000;0.000;2023-05-10T11:14:07;19.00;56.00
28959;DHT22;16066;0.000;0.000;2023-05-10T11:16:43;19.00;56.10
28959;DHT22;16066;0.000;0.000;2023-05-10T11:19:11;19.00;55.70
28959;DHT22;16066;0.000;0.000;2023-05-10T11:21:51;19.00;55.80
28959;DHT22;16066;0.000;0.000;2023-05-10T11:24:22;19.00;55.90
28959;DHT22;16066;0.000;0.000;2023-05-10T11:26:50;19.00;55.80
28959;DHT22;16066;0.000;0.000;2023-05-10T11:29:17;19.10;55.70
28959;DHT22;16066;0.000;0.000;2023-05-10T11:31:44;19.10;55.60
28959;DHT22;16066;0.000;0.000;2023-05-10T11:34:10;19.20;55.50
28959;DHT22;16066;0.000;0.000;2023-05-10T11:36:36;19.20;55.00
28959;DHT22;16066;0.000;0.000;2023-05-10T11:39:02;19.20;54.70
28959;DHT22;16066;0.000;0.000;2023-05-10T11:41:29;19.30;54.80
28959;DHT22;16066;0.000;0.000;2023-05-10T11:43:56;19.30;54.60
28959;DHT22;16066;0.000;0.000;2023-05-10T11:46:27;19.40;54.40
28959;DHT22;16066;0.000;0.000;2023-05-10T11:48:55;19.50;54.30
28959;DHT22;16066;0.000;0.000;2023-05-10T11:51:23;19.50;54.10
28959;DHT22;16066;0.000;0.000;2023-05-10T11:53:50;19.60;54.30
28959;DHT22;16066;0.000;0.000;2023-05-10T11:56:17;19.60;54.40
28959;DHT22;16066;0.000;0.000;2023-05-10T11:58:43;19.60;54.20
28959;DHT22;16066;0.000;0.000;2023-05-10T12:01:09;19.60;54.10
28959;DHT22;16066;0.000;0.000;2023-05-10T12:03:36;19.70;54.00
28959;DHT22;16066;0.000;0.000;2023-05-10T12:06:02;19.70;53.80
28959;DHT22;16066;0.000;0.000;2023-05-10T12:08:29;19.60;53.50
28959;DHT22;16066;0.000;0.000;2023-05-10T12:11:06;19.60;53.40
28959;DHT22;16066;0.000;0.000;2023-05-10T12:13:36;19.50;53.40
28959;DHT22;16066;0.000;0.000;2023-05-10T12:16:26;19.50;53.60
28959;DHT22;16066;0.000;0.000;2023-05-10T12:18:56;19.30;53.80
28959;DHT22;16066;0.000;0.000;2023-05-10T12:21:22;19.30;54.40
28959;DHT22;16066;0.000;0.000;2023-05-10T12:23:50;19.30;54.60
28959;DHT22;16066;0.000;0.000;2023-05-10T12:26:16;19.40;55.40
28959;DHT22;16066;0.000;0.000;2023-05-10T12:28:42;19.30;54.80
28959;DHT22;16066;0.000;0.000;2023-05-10T12:31:08;19.30;54.90
28959;DHT22;16066;0.000;0.000;2023-05-10T12:33:37;19.30;55.00
28959;DHT22;16066;0.000;0.000;2023-05-10T12:36:04;19.30;55.30
28959;DHT22;16066;0.000;0.000;2023-05-10T12:38:33;19.30;55.10
28959;DHT22;16066;0.000;0.000;2023-05-10T12:41:10;19.30;55.10
28959;DHT22;16066;0.000;0.000;2023-05-10T12:43:36;19.30;55.30
28959;DHT22;16066;0.000;0.000;2023-05-10T12:48:32;19.30;55.00
28959;DHT22;16066;0.000;0.000;2023-05-10T12:50:59;19.30;54.90
28959;DHT22;16066;0.000;0.000;2023-05-10T12:53:25;19.30;54.90
28959;DHT22;16066;0.000;0.000;2023-05-10T12:55:51;19.30;54.70
28959;DHT22;16066;0.000;0.000;2023-05-10T12:58:16;19.30;54.80
28959;DHT22;16066;0.000;0.000;2023-05-10T13:00:42;19.30;54.90
28959;DHT22;16066;0.000;0.000;2023-05-10T13:03:09;19.30;54.60
28959;DHT22;16066;0.000;0.000;2023-05-10T13:05:35;19.30;54.70
28959;DHT22;16066;0.000;0.000;2023-05-10T13:08:00;19.30;54.70
28959;DHT22;16066;0.000;0.000;2023-05-10T13:10:26;19.30;54.20
28959;DHT22;16066;0.000;0.000;2023-05-10T13:12:52;19.40;54.20
28959;DHT22;16066;0.000;0.000;2023-05-10T13:15:17;19.50;54.00
28959;DHT22;16066;0.000;0.000;2023-05-10T13:17:43;19.50;53.80
28959;DHT22;16066;0.000;0.000;2023-05-10T13:20:09;19.60;53.70
28959;DHT22;16066;0.000;0.000;2023-05-10T13:22:35;19.70;53.40
28959;DHT22;16066;0.000;0.000;2023-05-10T13:25:01;19.70;53.10
28959;DHT22;16066;0.000;0.000;2023-05-10T13:27:27;19.70;53.20
28959;DHT22;16066;0.000;0.000;2023-05-10T13:29:53;19.70;53.20
28959;DHT22;16066;0.000;0.000;2023-05-10T13:32:20;19.70;53.20
28959;DHT22;16066;0.000;0.000;2023-05-10T13:34:46;19.70;53.20
28959;DHT22;16066;0.000;0.000;2023-05-10T13:37:12;19.70;53.40
28959;DHT22;16066;0.000;0.000;2023-05-10T13:39:37;19.70;53.30
28959;DHT22;16066;0.000;0.000;2023-05-10T13:42:03;19.70;53.30
28959;DHT22;16066;0.000;0.000;2023-05-10T13:44:29;19.70;53.30
28959;DHT22;16066;0.000;0.000;2023-05-10T13:46:56;19.70;53.30
28959;DHT22;16066;0.000;0.000;2023-05-10T13:49:22;19.60;53.40
28959;DHT22;16066;0.000;0.000;2023-05-10T13:51:48;19.60;53.30
28959;DHT22;16066;0.000;0.000;2023-05-10T13:54:13;19.60;53.30
28959;DHT22;16066;0.000;0.000;2023-05-10T13:56:40;19.60;53.50
28959;DHT22;16066;0.000;0.000;2023-05-10T13:59:09;19.60;53.90
28959;DHT22;16066;0.000;0.000;2023-05-10T14:01:34;19.50;54.80
28959;DHT22;16066;0.000;0.000;2023-05-10T14:04:00;19.60;55.30
28959;DHT22;16066;0.000;0.000;2023-05-10T14:06:26;19.50;55.60
28959;DHT22;16066;0.000;0.000;2023-05-10T14:08:52;19.60;55.60
28959;DHT22;16066;0.000;0.000;2023-05-10T14:11:19;19.60;56.10
28959;DHT22;16066;0.000;0.000;2023-05-10T14:13:45;19.60;56.10
28959;DHT22;16066;0.000;0.000;2023-05-10T14:16:11;19.60;56.20
28959;DHT22;16066;0.000;0.000;2023-05-10T14:18:37;19.60;56.30
28959;DHT22;16066;0.000;0.000;2023-05-10T14:21:03;19.60;56.90
28959;DHT22;16066;0.000;0.000;2023-05-10T14:23:29;19.60;56.80
28959;DHT22;16066;0.000;0.000;2023-05-10T14:25:55;19.70;56.60
28959;DHT22;16066;0.000;0.000;2023-05-10T14:28:21;19.80;56.80
28959;DHT22;16066;0.000;0.000;2023-05-10T14:30:48;19.80;56.00
28959;DHT22;16066;0.000;0.000;2023-05-10T14:33:14;19.80;56.00
28959;DHT22;16066;0.000;0.000;2023-05-10T14:35:40;19.90;56.00
28959;DHT22;16066;0.000;0.000;2023-05-10T14:38:06;19.90;55.30
28959;DHT22;16066;0.000;0.000;2023-05-10T14:40:32;20.00;55.50
28959;DHT22;16066;0.000;0.000;2023-05-10T14:42:57;20.00;55.60
28959;DHT22;16066;0.000;0.000;2023-05-10T14:45:23;20.10;54.90
28959;DHT22;16066;0.000;0.000;2023-05-10T14:47:49;20.20;54.80
28959;DHT22;16066;0.000;0.000;2023-05-10T14:50:15;20.30;54.60
28959;DHT22;16066;0.000;0.000;2023-05-10T14:52:42;20.30;54.20
28959;DHT22;16066;0.000;0.000;2023-05-10T14:55:08;20.40;53.90
28959;DHT22;16066;0.000;0.000;2023-05-10T14:57:34;20.50;53.60
28959;DHT22;16066;0.000;0.000;2023-05-10T15:00:00;20.50;53.40
28959;DHT22;16066;0.000;0.000;2023-05-10T15:02:25;20.50;53.50
28959;DHT22;16066;0.000;0.000;2023-05-10T15:04:51;20.50;53.70
28959;DHT22;16066;0.000;0.000;2023-05-10T15:07:16;20.60;53.40
28959;DHT22;16066;0.000;0.000;2023-05-10T15:09:44;20.60;53.10
28959;DHT22;16066;0.000;0.000;2023-05-10T15:12:10;20.60;53.40
28959;DHT22;16066;0.000;0.000;2023-05-10T15:14:35;20.60;53.30
28959;DHT22;16066;0.000;0.000;2023-05-10T15:17:01;20.60;53.80
28959;DHT22;16066;0.000;0.000;2023-05-10T15:19:27;20.60;53.50
28959;DHT22;16066;0.000;0.000;2023-05-10T15:21:54;20.60;53.10
28959;DHT22;16066;0.000;0.000;2023-05-10T15:24:20;20.60;52.90
28959;DHT22;16066;0.000;0.000;2023-05-10T15:26:46;20.60;52.70
28959;DHT22;16066;0.000;0.000;2023-05-10T15:29:12;20.60;52.70
28959;DHT22;16066;0.000;0.000;2023-05-10T15:31:47;20.50;52.70
28959;DHT22;16066;0.000;0.000;2023-05-10T15:34:13;20.50;52.70
28959;DHT22;16066;0.000;0.000;2023-05-10T15:36:39;20.60;52.60
28959;DHT22;16066;0.000;0.000;2023-05-10T15:39:05;20.50;52.50
28959;DHT22;16066;0.000;0.000;2023-05-10T15:41:30;20.50;52.50
28959;DHT22;16066;0.000;0.000;2023-05-10T15:43:57;20.50;52.50
28959;DHT22;16066;0.000;0.000;2023-05-10T15:46:25;20.40;52.40
28959;DHT22;16066;0.000;0.000;2023-05-10T15:48:51;20.40;52.60
28959;DHT22;16066;0.000;0.000;2023-05-10T15:51:16;20.40;52.60
28959;DHT22;16066;0.000;0.000;2023-05-10T15:53:42;20.40;52.60
28959;DHT22;16066;0.000;0.000;2023-05-10T15:56:07;20.30;52.60
28959;DHT22;16066;0.000;0.000;2023-05-10T15:58:33;20.40;52.80
28959;DHT22;16066;0.000;0.000;2023-05-10T16:00:58;20.30;52.60
28959;DHT22;16066;0.000;0.000;2023-05-10T16:03:24;20.30;52.60
28959;DHT22;16066;0.000;0.000;2023-05-10T16:05:50;20.30;52.60
28959;DHT22;16066;0.000;0.000;2023-05-10T16:08:16;20.30;52.90
28959;DHT22;16066;0.000;0.000;2023-05-10T16:10:41;20.40;53.20